createdAt,value
2017-05-05T00:01:04.852Z,99.90
2017-05-05T00:03:32.534Z,99.90
2017-05-05T00:06:00.949Z,99.90
2017-05-05T00:08:29.376Z,99.90
2017-05-05T00:10:57.785Z,99.90
2017-05-05T00:13:26.220Z,99.90
2017-05-05T00:15:54.628Z,99.90
2017-05-05T00:18:22.297Z,99.90
2017-05-05T00:20:51.460Z,99.90
2017-05-05T00:23:19.124Z,99.90
2017-05-05T00:25:47.072Z,99.90
2017-05-05T00:28:14.733Z,99.90
2017-05-05T00:30:43.132Z,99.90
2017-05-05T00:33:11.570Z,99.90
2017-05-05T00:35:39.992Z,99.90
2017-05-05T00:38:07.937Z,99.90
2017-05-05T00:40:36.341Z,99.90
2017-05-05T00:43:03.983Z,99.90
2017-05-05T00:45:32.417Z,99.90
2017-05-05T00:48:00.834Z,99.90
2017-05-05T00:50:29.648Z,99.90
2017-05-05T00:52:57.299Z,99.90
2017-05-05T00:55:24.936Z,99.90
2017-05-05T00:57:52.597Z,99.90
2017-05-05T01:00:20.232Z,99.90
2017-05-05T01:02:48.668Z,99.90
2017-05-05T01:05:16.323Z,99.90
2017-05-05T01:07:44.304Z,99.90
2017-05-05T01:10:12.724Z,99.90
2017-05-05T01:12:41.138Z,99.90
2017-05-05T01:15:08.802Z,99.90
2017-05-05T01:17:36.440Z,99.90
2017-05-05T01:20:04.115Z,99.90
2017-05-05T01:22:32.521Z,99.90
2017-05-05T01:25:00.185Z,99.90
2017-05-05T01:27:27.816Z,99.90
2017-05-05T01:29:55.487Z,99.90
2017-05-05T01:32:23.884Z,99.90
2017-05-05T01:34:51.913Z,99.90
2017-05-05T01:37:20.329Z,99.90
2017-05-05T01:39:47.963Z,99.90
2017-05-05T01:42:16.398Z,99.90
2017-05-05T01:44:44.039Z,99.90
2017-05-05T01:47:11.809Z,99.90
2017-05-05T01:49:40.215Z,99.90
2017-05-05T01:52:07.857Z,99.90
2017-05-05T01:54:35.841Z,99.90
2017-05-05T01:57:03.491Z,99.90
2017-05-05T01:59:31.138Z,99.90
2017-05-05T02:01:58.811Z,99.90
2017-05-05T02:04:26.453Z,99.90
2017-05-05T02:06:54.903Z,99.90
2017-05-05T02:09:22.624Z,99.90
2017-05-05T02:11:50.288Z,99.90
2017-05-05T02:14:17.950Z,99.90
2017-05-05T02:16:46.017Z,99.90
2017-05-05T02:19:13.678Z,99.90
2017-05-05T02:21:41.401Z,99.90
2017-05-05T02:24:09.845Z,99.90
2017-05-05T02:26:37.510Z,99.90
2017-05-05T02:29:05.185Z,99.90
2017-05-05T02:31:33.618Z,99.90
2017-05-05T02:34:02.083Z,99.90
2017-05-05T02:36:29.732Z,99.90
2017-05-05T02:38:57.393Z,99.90
2017-05-05T02:41:25.796Z,99.90
2017-05-05T02:43:53.461Z,99.90
2017-05-05T02:46:21.104Z,99.90
2017-05-05T02:48:48.766Z,99.90
2017-05-05T02:51:16.413Z,99.90
2017-05-05T02:53:44.084Z,99.90
2017-05-05T02:56:11.726Z,99.90
2017-05-05T02:58:39.383Z,99.90
2017-05-05T03:01:08.533Z,99.90
2017-05-05T03:03:36.201Z,99.90
2017-05-05T03:06:04.848Z,99.90
2017-05-05T03:08:32.806Z,99.90
2017-05-05T03:11:00.497Z,99.90
2017-05-05T03:13:28.142Z,99.90
2017-05-05T03:15:55.804Z,99.90
2017-05-05T03:18:24.205Z,99.90
2017-05-05T03:20:51.865Z,99.90
2017-05-05T03:23:20.272Z,99.90
2017-05-05T03:25:48.711Z,99.90
2017-05-05T03:28:16.357Z,99.90
2017-05-05T03:30:44.022Z,99.90
2017-05-05T03:33:13.170Z,99.90
2017-05-05T03:35:41.593Z,99.90
2017-05-05T03:38:09.270Z,99.90
2017-05-05T03:40:36.941Z,99.90
2017-05-05T03:43:05.240Z,99.90
2017-05-05T03:45:34.059Z,99.90
2017-05-05T03:48:03.488Z,99.90
2017-05-05T03:50:31.135Z,99.90
2017-05-05T03:52:59.585Z,99.90
2017-05-05T03:55:27.241Z,99.90
2017-05-05T03:57:56.417Z,99.90
2017-05-05T04:00:25.571Z,99.90
2017-05-05T04:02:53.239Z,99.90
2017-05-05T04:05:20.876Z,99.90
2017-05-05T04:07:48.916Z,99.90
2017-05-05T04:10:16.562Z,99.90
2017-05-05T04:12:44.206Z,99.90
2017-05-05T04:15:12.650Z,99.90
2017-05-05T04:17:40.293Z,99.90
2017-05-05T04:20:07.960Z,99.90
2017-05-05T04:22:35.592Z,99.90
2017-05-05T04:25:04.031Z,99.90
2017-05-05T04:27:32.441Z,99.90
2017-05-05T04:30:00.103Z,99.90
2017-05-05T04:32:27.736Z,99.90
2017-05-05T04:34:55.438Z,99.90
2017-05-05T04:37:23.860Z,99.90
2017-05-05T04:39:51.529Z,99.90
2017-05-05T04:42:19.162Z,99.90
2017-05-05T04:44:47.621Z,99.90
2017-05-05T04:47:16.029Z,99.90
2017-05-05T04:49:44.494Z,99.90
2017-05-05T04:52:12.901Z,99.90
2017-05-05T04:54:40.570Z,99.90
2017-05-05T04:57:08.977Z,99.90
2017-05-05T04:59:37.396Z,99.90
2017-05-05T05:02:05.090Z,99.90
2017-05-05T05:04:33.525Z,99.90
2017-05-05T05:07:02.665Z,99.90
2017-05-05T05:09:30.448Z,99.90
2017-05-05T05:11:59.742Z,99.90
2017-05-05T05:14:27.395Z,99.90
2017-05-05T05:16:55.069Z,99.90
2017-05-05T05:19:23.594Z,99.90
2017-05-05T05:21:51.256Z,99.90
2017-05-05T05:24:19.691Z,99.90
2017-05-05T05:26:47.368Z,99.90
2017-05-05T05:29:15.006Z,99.90
2017-05-05T05:31:42.673Z,99.90
2017-05-05T05:34:11.084Z,99.90
2017-05-05T05:36:38.761Z,99.90
2017-05-05T05:39:06.409Z,99.90
2017-05-05T05:41:34.084Z,99.90
2017-05-05T05:44:01.729Z,99.90
2017-05-05T05:46:30.160Z,99.90
2017-05-05T05:48:59.311Z,99.90
2017-05-05T05:51:27.043Z,99.90
2017-05-05T05:53:54.684Z,99.90
2017-05-05T05:56:22.357Z,99.90
2017-05-05T05:58:50.010Z,99.90
2017-05-05T06:01:18.780Z,99.90
2017-05-05T06:03:46.432Z,99.90
2017-05-05T06:06:14.101Z,99.90
2017-05-05T06:08:41.778Z,99.90
2017-05-05T06:11:10.189Z,99.90
2017-05-05T06:13:37.862Z,99.90
2017-05-05T06:16:06.299Z,99.90
2017-05-05T06:18:34.253Z,99.90
2017-05-05T06:21:01.965Z,99.90
2017-05-05T06:23:29.633Z,99.90
2017-05-05T06:25:57.301Z,99.90
2017-05-05T06:28:24.985Z,99.90
2017-05-05T06:30:53.424Z,99.90
2017-05-05T06:33:21.061Z,99.90
2017-05-05T06:35:48.756Z,99.90
2017-05-05T06:38:17.172Z,99.90
2017-05-05T06:40:45.617Z,99.90
2017-05-05T06:43:13.269Z,99.90
2017-05-05T06:45:41.720Z,99.90
2017-05-05T06:48:09.651Z,99.90
2017-05-05T06:50:38.093Z,99.90
2017-05-05T06:53:05.733Z,99.90
2017-05-05T06:55:33.498Z,99.90
2017-05-05T06:58:01.136Z,99.90
2017-05-05T07:00:28.802Z,99.90
2017-05-05T07:02:57.216Z,99.90
2017-05-05T07:05:24.892Z,99.90
2017-05-05T07:07:53.328Z,98.40
2017-05-05T07:10:21.001Z,98.40
2017-05-05T07:12:48.663Z,96.80
2017-05-05T07:15:17.402Z,96.60
2017-05-05T07:17:45.816Z,96.40
2017-05-05T07:20:14.233Z,97.40
2017-05-05T07:22:41.903Z,96.80
2017-05-05T07:25:09.584Z,96.90
2017-05-05T07:27:37.289Z,97.80
2017-05-05T07:30:04.942Z,97.30
2017-05-05T07:32:32.888Z,97.70
2017-05-05T07:35:02.108Z,97.90
2017-05-05T07:37:30.525Z,98.80
2017-05-05T07:39:58.201Z,98.10
2017-05-05T07:42:26.629Z,99.00
2017-05-05T07:44:54.312Z,98.80
2017-05-05T07:47:22.724Z,97.70
2017-05-05T07:49:50.468Z,97.70
2017-05-05T07:52:18.116Z,97.10
2017-05-05T07:54:46.557Z,94.40
2017-05-05T07:57:14.199Z,94.30
2017-05-05T07:59:42.906Z,93.70
2017-05-05T08:02:10.550Z,93.70
2017-05-05T08:04:38.205Z,93.40
2017-05-05T08:07:05.869Z,93.70
2017-05-05T08:09:33.521Z,93.80
2017-05-05T08:12:01.199Z,93.10
2017-05-05T08:14:29.616Z,94.20
2017-05-05T08:16:57.288Z,94.10
2017-05-05T08:19:24.941Z,94.20
2017-05-05T08:21:52.620Z,93.50
2017-05-05T08:24:21.052Z,90.30
2017-05-05T08:26:48.734Z,90.30
2017-05-05T08:29:16.381Z,90.10
2017-05-05T08:31:44.054Z,89.50
2017-05-05T08:34:11.736Z,89.60
2017-05-05T08:36:39.388Z,89.40
2017-05-05T08:39:07.069Z,90.30
2017-05-05T08:41:34.788Z,89.70
2017-05-05T08:44:02.467Z,88.70
2017-05-05T08:46:30.873Z,89.20
2017-05-05T08:48:58.536Z,89.20
2017-05-05T08:51:26.951Z,86.80
2017-05-05T08:53:54.997Z,86.80
2017-05-05T08:56:22.637Z,86.50
2017-05-05T08:58:51.046Z,84.60
2017-05-05T09:01:18.733Z,84.60
2017-05-05T09:03:47.166Z,80.00
2017-05-05T09:06:15.613Z,79.90
2017-05-05T09:08:43.253Z,79.40
2017-05-05T09:11:10.929Z,78.40
2017-05-05T09:13:38.579Z,76.90
2017-05-05T09:16:06.257Z,77.40
2017-05-05T09:18:34.668Z,76.80
2017-05-05T09:21:02.332Z,76.70
2017-05-05T09:23:29.993Z,80.20
2017-05-05T09:25:58.124Z,77.20
2017-05-05T09:28:25.768Z,78.20
2017-05-05T09:30:53.461Z,78.40
2017-05-05T09:33:21.872Z,79.40
2017-05-05T09:35:49.540Z,79.30
2017-05-05T09:38:17.189Z,80.40
2017-05-05T09:40:44.861Z,81.60
2017-05-05T09:43:13.289Z,81.00
2017-05-05T09:45:41.345Z,80.60
2017-05-05T09:48:08.998Z,80.30
2017-05-05T09:50:36.648Z,78.90
2017-05-05T09:53:05.080Z,78.80
2017-05-05T09:55:32.733Z,78.80
2017-05-05T09:58:00.405Z,80.00
2017-05-05T10:00:28.812Z,78.60
2017-05-05T10:02:57.250Z,79.80
2017-05-05T10:05:26.431Z,79.60
2017-05-05T10:07:54.169Z,79.60
2017-05-05T10:10:21.856Z,80.50
2017-05-05T10:12:50.288Z,79.70
2017-05-05T10:15:17.928Z,79.70
2017-05-05T10:17:45.606Z,78.20
2017-05-05T10:20:14.026Z,79.60
2017-05-05T10:22:43.195Z,78.20
2017-05-05T10:25:10.937Z,78.20
2017-05-05T10:27:38.609Z,78.20
2017-05-05T10:30:06.260Z,78.30
2017-05-05T10:32:34.310Z,76.70
2017-05-05T10:35:01.958Z,77.80
2017-05-05T10:37:29.604Z,78.90
2017-05-05T10:39:58.042Z,79.50
2017-05-05T10:42:25.700Z,79.40
2017-05-05T10:44:53.380Z,81.30
2017-05-05T10:47:21.032Z,81.10
2017-05-05T10:49:48.706Z,80.20
2017-05-05T10:52:17.134Z,78.90
2017-05-05T10:54:44.805Z,78.90
2017-05-05T10:57:13.227Z,77.10
2017-05-05T10:59:41.188Z,77.50
2017-05-05T11:02:08.845Z,77.20
2017-05-05T11:04:37.273Z,77.80
2017-05-05T11:07:04.949Z,77.80
2017-05-05T11:09:32.606Z,80.30
2017-05-05T11:12:00.281Z,78.10
2017-05-05T11:14:28.693Z,78.00
2017-05-05T11:16:56.657Z,77.90
2017-05-05T11:19:25.527Z,78.20
2017-05-05T11:21:53.940Z,78.60
2017-05-05T11:24:22.380Z,80.00
2017-05-05T11:26:50.031Z,80.00
2017-05-05T11:29:18.480Z,79.10
2017-05-05T11:31:46.930Z,80.90
2017-05-05T11:34:14.601Z,80.80
2017-05-05T11:36:42.251Z,80.30
2017-05-05T11:39:10.280Z,80.40
2017-05-05T11:41:37.937Z,80.20
2017-05-05T11:44:05.585Z,80.70
2017-05-05T11:46:33.530Z,77.60
2017-05-05T11:49:01.187Z,76.40
2017-05-05T11:51:29.603Z,78.90
2017-05-05T11:53:57.276Z,78.90
2017-05-05T11:56:24.944Z,78.10
2017-05-05T11:58:53.384Z,77.60
2017-05-05T12:01:21.036Z,77.60
2017-05-05T12:03:48.725Z,78.70
2017-05-05T12:06:16.376Z,77.90
2017-05-05T12:08:44.049Z,77.50
2017-05-05T12:11:12.457Z,76.70
2017-05-05T12:13:40.416Z,76.70
2017-05-05T12:16:08.069Z,76.50
2017-05-05T12:18:35.726Z,75.70
2017-05-05T12:21:03.397Z,76.30
2017-05-05T12:23:31.809Z,76.40
2017-05-05T12:26:00.589Z,75.90
2017-05-05T12:28:28.229Z,75.90
2017-05-05T12:30:55.879Z,74.90
2017-05-05T12:33:23.598Z,74.80
2017-05-05T12:35:51.241Z,74.10
2017-05-05T12:38:19.233Z,75.00
2017-05-05T12:40:46.887Z,74.90
2017-05-05T12:43:15.307Z,75.30
2017-05-05T12:45:43.744Z,75.40
2017-05-05T12:48:12.165Z,71.90
2017-05-05T12:50:39.836Z,71.90
2017-05-05T12:53:07.481Z,72.00
2017-05-05T12:55:36.213Z,71.80
2017-05-05T12:58:03.876Z,71.70
2017-05-05T13:00:31.536Z,72.50
2017-05-05T13:02:59.232Z,72.70
2017-05-05T13:05:27.652Z,73.20
2017-05-05T13:07:55.320Z,73.20
2017-05-05T13:10:22.972Z,72.30
2017-05-05T13:12:50.931Z,71.90
2017-05-05T13:15:19.367Z,74.60
2017-05-05T13:17:47.102Z,74.60
2017-05-05T13:20:14.776Z,75.40
2017-05-05T13:22:42.457Z,75.60
2017-05-05T13:25:10.894Z,74.90
2017-05-05T13:27:38.555Z,75.00
2017-05-05T13:30:07.005Z,76.70
2017-05-05T13:32:35.489Z,76.50
2017-05-05T13:35:03.932Z,75.40
2017-05-05T13:37:31.593Z,75.30
2017-05-05T13:39:59.294Z,75.70
2017-05-05T13:42:26.970Z,75.50
2017-05-05T13:44:54.652Z,75.50
2017-05-05T13:47:23.081Z,77.00
2017-05-05T13:49:51.125Z,77.00
2017-05-05T13:52:18.781Z,77.00
2017-05-05T13:54:46.428Z,78.00
2017-05-05T13:57:14.104Z,77.40
2017-05-05T13:59:42.521Z,77.70
2017-05-05T14:02:10.955Z,77.00
2017-05-05T14:04:39.368Z,78.20
2017-05-05T14:07:07.041Z,78.20
2017-05-05T14:09:35.453Z,77.10
2017-05-05T14:12:03.155Z,77.10
2017-05-05T14:14:30.812Z,78.00
2017-05-05T14:16:59.538Z,77.80
2017-05-05T14:19:27.189Z,77.80
2017-05-05T14:21:54.836Z,76.70
2017-05-05T14:24:22.508Z,76.20
2017-05-05T14:26:50.918Z,78.00
2017-05-05T14:29:18.605Z,77.30
2017-05-05T14:31:46.256Z,77.90
2017-05-05T14:34:13.921Z,78.10
2017-05-05T14:36:42.383Z,77.10
2017-05-05T14:39:10.828Z,77.10
2017-05-05T14:41:38.480Z,77.10
2017-05-05T14:44:07.665Z,80.00
2017-05-05T14:46:35.353Z,79.90
2017-05-05T14:49:03.463Z,78.70
2017-05-05T14:51:32.620Z,77.70
2017-05-05T14:54:00.268Z,77.50
2017-05-05T14:56:28.316Z,78.80
2017-05-05T14:58:55.959Z,78.80
2017-05-05T15:01:23.600Z,77.90
2017-05-05T15:03:51.272Z,78.20
2017-05-05T15:06:19.025Z,78.50
2017-05-05T15:08:47.019Z,79.00
2017-05-05T15:11:15.437Z,80.50
2017-05-05T15:13:44.550Z,80.50
2017-05-05T15:16:14.140Z,79.00
2017-05-05T15:18:41.872Z,78.40
2017-05-05T15:21:09.545Z,79.50
2017-05-05T15:23:37.961Z,80.10
2017-05-05T15:26:06.404Z,80.80
2017-05-05T15:28:34.057Z,80.80
2017-05-05T15:31:01.762Z,80.40
2017-05-05T15:33:29.407Z,81.60
2017-05-05T15:35:58.413Z,80.60
2017-05-05T15:38:26.824Z,81.40
2017-05-05T15:40:54.493Z,81.50
2017-05-05T15:43:22.145Z,83.00
2017-05-05T15:45:49.823Z,84.30
2017-05-05T15:48:17.472Z,84.90
2017-05-05T15:50:45.150Z,85.40
2017-05-05T15:53:12.791Z,84.80
2017-05-05T15:55:40.483Z,86.20
2017-05-05T15:58:08.917Z,87.20
2017-05-05T16:00:36.614Z,87.10
2017-05-05T16:03:05.024Z,86.50
2017-05-05T16:05:33.736Z,86.40
2017-05-05T16:08:01.405Z,87.00
2017-05-05T16:10:29.088Z,86.60
2017-05-05T16:12:56.768Z,85.00
2017-05-05T16:15:24.404Z,84.20
2017-05-05T16:17:52.104Z,84.00
2017-05-05T16:20:19.763Z,84.10
2017-05-05T16:22:47.440Z,85.10
2017-05-05T16:25:16.604Z,85.90
2017-05-05T16:27:45.052Z,85.90
2017-05-05T16:30:12.725Z,85.90
2017-05-05T16:32:40.499Z,85.40
2017-05-05T16:35:08.170Z,85.60
2017-05-05T16:37:36.137Z,85.20
2017-05-05T16:40:03.784Z,84.90
2017-05-05T16:42:31.437Z,84.80
2017-05-05T16:44:59.124Z,85.50
2017-05-05T16:47:26.768Z,85.90
2017-05-05T16:49:54.442Z,86.70
2017-05-05T16:52:22.894Z,84.80
2017-05-05T16:54:51.664Z,85.20
2017-05-05T16:57:20.809Z,85.10
2017-05-05T16:59:49.220Z,86.00
2017-05-05T17:02:16.971Z,85.30
2017-05-05T17:04:45.386Z,85.80
2017-05-05T17:07:13.143Z,85.50
2017-05-05T17:09:40.841Z,86.00
2017-05-05T17:12:09.282Z,85.10
2017-05-05T17:14:36.945Z,85.10
2017-05-05T17:17:05.382Z,86.00
2017-05-05T17:19:33.847Z,86.10
2017-05-05T17:22:01.601Z,86.00
2017-05-05T17:24:29.419Z,86.10
2017-05-05T17:26:57.143Z,86.60
2017-05-05T17:29:25.746Z,87.10
2017-05-05T17:31:53.508Z,87.10
2017-05-05T17:34:22.008Z,87.30
2017-05-05T17:36:50.475Z,87.40
2017-05-05T17:39:18.893Z,87.60
2017-05-05T17:41:47.347Z,87.00
2017-05-05T17:44:16.418Z,87.70
2017-05-05T17:46:44.088Z,87.70
2017-05-05T17:49:11.784Z,86.80
2017-05-05T17:51:40.022Z,87.70
2017-05-05T17:54:08.581Z,89.10
2017-05-05T17:56:36.620Z,89.10
2017-05-05T17:59:04.320Z,89.40
2017-05-05T18:01:31.976Z,89.40
2017-05-05T18:03:59.660Z,90.50
2017-05-05T18:06:27.312Z,92.60
2017-05-05T18:08:55.728Z,95.70
2017-05-05T18:11:23.731Z,95.60
2017-05-05T18:13:52.912Z,97.70
2017-05-05T18:16:20.626Z,98.10
2017-05-05T18:18:49.080Z,99.90
2017-05-05T18:21:16.736Z,99.90
2017-05-05T18:23:45.181Z,99.90
2017-05-05T18:26:13.598Z,99.90
2017-05-05T18:28:42.037Z,99.90
2017-05-05T18:31:09.681Z,99.90
2017-05-05T18:33:37.576Z,99.90
2017-05-05T18:36:08.419Z,99.90
2017-05-05T18:38:36.589Z,99.90
2017-05-05T18:41:05.009Z,99.90
2017-05-05T18:43:34.164Z,99.90
2017-05-05T18:46:01.857Z,99.90
2017-05-05T18:48:29.497Z,99.90
2017-05-05T18:50:58.725Z,99.90
2017-05-05T18:53:26.449Z,99.90
2017-05-05T18:55:54.891Z,99.90
2017-05-05T18:58:24.087Z,99.90
2017-05-05T19:00:51.770Z,99.90
2017-05-05T19:03:20.185Z,99.90
2017-05-05T19:05:48.664Z,99.90
2017-05-05T19:08:17.268Z,99.90
2017-05-05T19:10:44.995Z,99.90
2017-05-05T19:15:39.221Z,99.90
2017-05-05T19:18:06.874Z,99.90
2017-05-05T19:20:34.580Z,99.90
2017-05-05T19:23:02.239Z,99.90
2017-05-05T19:25:29.921Z,99.90
2017-05-05T19:27:57.573Z,99.90
2017-05-05T19:30:26.756Z,99.90
2017-05-05T19:32:54.407Z,99.90
2017-05-05T19:35:22.435Z,99.90
2017-05-05T19:37:50.096Z,99.90
2017-05-05T19:40:17.758Z,99.90
2017-05-05T19:42:45.442Z,99.90
2017-05-05T19:45:13.102Z,99.90
2017-05-05T19:47:40.793Z,99.90
2017-05-05T19:50:08.446Z,99.90
2017-05-05T19:52:37.636Z,99.90
2017-05-05T19:55:06.061Z,99.90
2017-05-05T19:57:33.745Z,99.90
2017-05-05T20:00:01.393Z,99.90
2017-05-05T20:02:29.066Z,99.90
2017-05-05T20:04:56.787Z,99.90
2017-05-05T20:07:25.241Z,99.90
2017-05-05T20:09:52.884Z,99.90
2017-05-05T20:12:20.565Z,99.90
2017-05-05T20:14:48.997Z,99.90
2017-05-05T20:17:18.194Z,99.90
2017-05-05T20:19:45.861Z,99.90
2017-05-05T20:22:14.296Z,99.90
2017-05-05T20:24:42.763Z,99.90
2017-05-05T20:27:10.433Z,99.90
2017-05-05T20:29:38.853Z,99.90
2017-05-05T20:32:07.640Z,99.90
2017-05-05T20:34:36.788Z,99.90
2017-05-05T20:37:04.431Z,99.90
2017-05-05T20:39:32.126Z,99.90
2017-05-05T20:42:01.283Z,99.90
2017-05-05T20:44:29.740Z,99.90
2017-05-05T20:46:58.163Z,99.90
2017-05-05T20:49:26.602Z,99.90
2017-05-05T20:51:54.255Z,99.90
2017-05-05T20:54:21.935Z,99.90
2017-05-05T20:56:49.588Z,99.90
2017-05-05T20:59:21.954Z,99.90
2017-05-05T21:01:49.643Z,99.90
2017-05-05T21:04:17.329Z,99.90
2017-05-05T21:06:44.984Z,99.90
2017-05-05T21:09:12.652Z,99.90
2017-05-05T21:11:40.311Z,99.90
2017-05-05T21:14:08.709Z,99.90
2017-05-05T21:16:40.292Z,99.90
2017-05-05T21:19:08.274Z,99.90
2017-05-05T21:21:35.932Z,99.90
2017-05-05T21:24:03.597Z,99.90
2017-05-05T21:26:32.037Z,99.90
2017-05-05T21:28:59.684Z,99.90
2017-05-05T21:31:27.377Z,99.90
2017-05-05T21:33:56.839Z,99.90
2017-05-05T21:36:27.230Z,99.90
2017-05-05T21:38:54.903Z,99.90
2017-05-05T21:41:23.413Z,99.90
2017-05-05T21:43:51.064Z,99.90
2017-05-05T21:46:18.724Z,99.90
2017-05-05T21:48:46.402Z,99.90
2017-05-05T21:51:14.054Z,99.90
2017-05-05T21:53:43.900Z,99.90
2017-05-05T21:56:12.616Z,99.90
2017-05-05T21:58:40.256Z,99.90
2017-05-05T22:01:07.929Z,99.90
2017-05-05T22:03:36.349Z,99.90
2017-05-05T22:06:04.156Z,99.90
2017-05-05T22:08:32.032Z,99.90
2017-05-05T22:11:01.303Z,99.90
2017-05-05T22:13:29.713Z,99.90
2017-05-05T22:15:57.389Z,99.90
2017-05-05T22:18:25.894Z,99.90
2017-05-05T22:20:54.364Z,99.90
2017-05-05T22:23:22.082Z,99.90
2017-05-05T22:25:49.776Z,99.90
2017-05-05T22:28:17.461Z,99.90
2017-05-05T22:30:45.152Z,99.90
2017-05-05T22:33:13.577Z,99.90
2017-05-05T22:35:42.013Z,99.90
2017-05-05T22:38:09.662Z,99.90
2017-05-05T22:40:37.334Z,99.90
2017-05-05T22:43:04.997Z,99.90
2017-05-05T22:45:32.990Z,99.90
2017-05-05T22:48:00.651Z,99.90
2017-05-05T22:50:28.548Z,99.90
2017-05-05T22:52:56.242Z,99.90
2017-05-05T22:55:23.896Z,99.90
2017-05-05T22:57:51.570Z,99.90
2017-05-05T23:00:20.021Z,99.90
2017-05-05T23:02:47.697Z,99.90
2017-05-05T23:05:16.126Z,99.90
2017-05-05T23:07:43.810Z,99.90
2017-05-05T23:10:12.240Z,99.90
2017-05-05T23:12:39.930Z,99.90
2017-05-05T23:15:08.361Z,99.90
2017-05-05T23:17:36.025Z,99.90
2017-05-05T23:20:04.451Z,99.90
2017-05-05T23:25:04.977Z,99.90
2017-05-05T23:27:32.680Z,99.90
2017-05-05T23:30:00.348Z,99.90
2017-05-05T23:32:28.289Z,99.90
2017-05-05T23:34:55.923Z,99.90
2017-05-05T23:37:24.353Z,99.90
2017-05-05T23:39:52.020Z,99.90
2017-05-05T23:42:20.431Z,99.90
2017-05-05T23:44:48.128Z,99.90
2017-05-05T23:47:16.525Z,99.90
2017-05-05T23:49:44.170Z,99.90
2017-05-05T23:52:14.530Z,99.90
2017-05-05T23:54:42.572Z,99.90
2017-05-05T23:57:10.247Z,99.90
2017-05-05T23:59:38.683Z,99.90
